Time;durP1;ratioP1;P1;durP2;ratioP2;P2;SDS_P1;SDS_P2;PMS_P1;PMS_P2;Temp;Humidity;BMP_temperature;BMP_pressure;BME280_temperature;BME280_humidity;BME280_pressure;Samples;Min_cycle;Max_cycle;Signal;HPM_P1;HPM_P2
2022/04/04 00:00:04;;;;;;;9.63;8.38;;;;;;;;;;5031144;28;20222;-46
2022/04/04 00:02:30;;;;;;;10.68;8.20;;;;;;;;;;5031244;28;20203;-46
2022/04/04 00:04:56;;;;;;;10.90;9.20;;;;;;;;;;5031368;28;20180;-46
2022/04/04 00:07:22;;;;;;;10.68;9.02;;;;;;;;;;5031157;28;20556;-46
2022/04/04 00:09:48;;;;;;;10.27;9.27;;;;;;;;;;5031177;28;20172;-46
2022/04/04 00:12:14;;;;;;;9.63;8.50;;;;;;;;;;5031128;28;20398;-46
2022/04/04 00:14:40;;;;;;;10.80;8.77;;;;;;;;;;5031220;28;20399;-46
2022/04/04 00:17:06;;;;;;;10.70;8.80;;;;;;;;;;5031274;28;20174;-46
2022/04/04 00:19:32;;;;;;;9.85;8.45;;;;;;;;;;5030925;28;20482;-46
2022/04/04 00:21:58;;;;;;;9.90;8.05;;;;;;;;;;5031781;28;20177;-46
2022/04/04 00:24:24;;;;;;;10.90;7.67;;;;;;;;;;5034829;28;20599;-46
2022/04/04 00:26:50;;;;;;;12.20;9.18;;;;;;;;;;5034703;28;20454;-46
2022/04/04 00:29:16;;;;;;;10.30;8.73;;;;;;;;;;5034497;28;20193;-46
2022/04/04 00:31:42;;;;;;;11.07;8.47;;;;;;;;;;5034431;28;20247;-47
2022/04/04 00:34:08;;;;;;;12.93;9.38;;;;;;;;;;5034410;28;20422;-49
2022/04/04 00:36:34;;;;;;;14.47;9.40;;;;;;;;;;5034421;28;20175;-50
2022/04/04 00:39:00;;;;;;;11.20;9.43;;;;;;;;;;5034461;28;20597;-46
2022/04/04 00:41:26;;;;;;;12.70;9.73;;;;;;;;;;5034202;28;20434;-46
2022/04/04 00:43:52;;;;;;;13.87;9.73;;;;;;;;;;5034219;28;20434;-46
2022/04/04 00:46:19;;;;;;;12.98;10.60;;;;;;;;;;5034255;28;20835;-46
2022/04/04 00:48:45;;;;;;;13.18;10.50;;;;;;;;;;5034201;28;20455;-46
2022/04/04 00:51:11;;;;;;;13.80;10.47;;;;;;;;;;5033992;28;20250;-46
2022/04/04 00:53:37;;;;;;;10.93;9.65;;;;;;;;;;5033995;28;20937;-46
2022/04/04 00:56:03;;;;;;;13.32;9.60;;;;;;;;;;5034091;28;20648;-46
2022/04/04 00:58:30;;;;;;;11.45;9.60;;;;;;;;;;5034068;28;20164;-46
2022/04/04 01:00:56;;;;;;;11.23;9.80;;;;;;;;;;5033448;28;20243;-49
2022/04/04 01:03:22;;;;;;;15.98;10.63;;;;;;;;;;5033410;28;20184;-48
2022/04/04 01:05:48;;;;;;;10.82;9.43;;;;;;;;;;5033345;28;20587;-46
2022/04/04 01:08:15;;;;;;;13.13;10.10;;;;;;;;;;5032564;28;20180;-49
2022/04/04 01:10:41;;;;;;;14.77;10.55;;;;;;;;;;5033718;28;20404;-47
2022/04/04 01:13:07;;;;;;;15.57;10.57;;;;;;;;;;5033810;28;20275;-46
2022/04/04 01:15:33;;;;;;;14.23;11.30;;;;;;;;;;5033683;28;20199;-47
2022/04/04 01:18:00;;;;;;;12.98;11.23;;;;;;;;;;5033599;28;20402;-48
2022/04/04 01:20:26;;;;;;;13.50;10.15;;;;;;;;;;5033393;28;20172;-46
2022/04/04 01:22:52;;;;;;;13.82;10.32;;;;;;;;;;5033402;28;20191;-46
2022/04/04 01:25:28;;;;;;;12.77;10.47;;;;;;;;;;5033569;28;20255;-47
2022/04/04 01:27:55;;;;;;;12.80;10.23;;;;;;;;;;5033419;28;20461;-46
2022/04/04 01:30:22;;;;;;;11.52;10.13;;;;;;;;;;5033381;28;20454;-45
2022/04/04 01:32:49;;;;;;;16.98;12.45;;;;;;;;;;5032824;28;20685;-48
2022/04/04 01:35:15;;;;;;;13.50;10.85;;;;;;;;;;5033465;28;20241;-46
2022/04/04 01:37:41;;;;;;;12.95;11.02;;;;;;;;;;5033448;28;20298;-46
2022/04/04 01:40:09;;;;;;;16.73;11.48;;;;;;;;;;5033049;28;20167;-46
2022/04/04 01:42:37;;;;;;;13.02;11.38;;;;;;;;;;5033196;28;20257;-46
2022/04/04 01:45:03;;;;;;;15.50;11.45;;;;;;;;;;5033151;28;20520;-49
2022/04/04 01:47:29;;;;;;;13.55;11.48;;;;;;;;;;5033011;28;20214;-48
2022/04/04 01:49:55;;;;;;;15.23;11.00;;;;;;;;;;5032771;28;20191;-46
2022/04/04 01:52:21;;;;;;;14.63;11.30;;;;;;;;;;5033067;28;20493;-46
2022/04/04 01:54:47;;;;;;;12.50;10.33;;;;;;;;;;5033028;28;20453;-46
2022/04/04 01:57:13;;;;;;;13.10;11.00;;;;;;;;;;5033012;28;20402;-46
2022/04/04 01:59:38;;;;;;;14.00;11.63;;;;;;;;;;5032600;28;20748;-46
2022/04/04 02:02:05;;;;;;;12.90;10.20;;;;;;;;;;5032682;28;20498;-46
2022/04/04 02:04:30;;;;;;;15.45;12.05;;;;;;;;;;5033079;28;20483;-46
2022/04/04 02:06:56;;;;;;;16.13;11.40;;;;;;;;;;5032891;28;20750;-46
2022/04/04 02:09:22;;;;;;;15.68;11.02;;;;;;;;;;5032500;28;20769;-46
2022/04/04 02:11:48;;;;;;;16.73;11.90;;;;;;;;;;5032657;28;20171;-48
2022/04/04 02:14:15;;;;;;;11.25;10.05;;;;;;;;;;5032462;28;20929;-48
2022/04/04 02:16:41;;;;;;;17.13;10.70;;;;;;;;;;5032490;28;20176;-49
2022/04/04 02:19:08;;;;;;;15.27;11.50;;;;;;;;;;5032543;28;20528;-49
2022/04/04 02:21:34;;;;;;;14.43;10.85;;;;;;;;;;5032290;28;20172;-46
2022/04/04 02:24:00;;;;;;;15.67;10.43;;;;;;;;;;5032344;28;20191;-46
2022/04/04 02:26:26;;;;;;;13.40;10.93;;;;;;;;;;5032366;28;20485;-46
2022/04/04 02:28:53;;;;;;;14.20;11.23;;;;;;;;;;5032390;28;20402;-46
2022/04/04 02:31:19;;;;;;;14.65;9.93;;;;;;;;;;5032160;28;20169;-46
2022/04/04 02:33:45;;;;;;;13.67;10.23;;;;;;;;;;5032141;28;20274;-46
2022/04/04 02:36:11;;;;;;;12.80;10.15;;;;;;;;;;5032480;28;20410;-46
2022/04/04 02:38:37;;;;;;;15.75;10.55;;;;;;;;;;5032280;28;20165;-46
2022/04/04 02:41:04;;;;;;;15.77;11.60;;;;;;;;;;5032008;28;20163;-45
2022/04/04 02:43:31;;;;;;;14.65;11.30;;;;;;;;;;5031954;28;20198;-50
2022/04/04 02:45:57;;;;;;;16.55;9.68;;;;;;;;;;5031374;28;20251;-47
2022/04/04 02:48:23;;;;;;;15.90;10.00;;;;;;;;;;5032068;28;20575;-46
2022/04/04 02:50:49;;;;;;;12.77;9.75;;;;;;;;;;5031725;28;20176;-49
2022/04/04 02:53:16;;;;;;;12.15;9.18;;;;;;;;;;5031890;28;20694;-46
2022/04/04 02:58:27;;;;;;;16.17;10.73;;;;;;;;;;5031999;28;20178;-46
2022/04/04 03:00:53;;;;;;;16.70;9.90;;;;;;;;;;5031708;28;20177;-46
2022/04/04 03:03:19;;;;;;;13.60;9.47;;;;;;;;;;5031880;28;20435;-46
2022/04/04 03:05:46;;;;;;;11.65;9.05;;;;;;;;;;5031814;28;20452;-46
2022/04/04 03:08:13;;;;;;;16.83;9.43;;;;;;;;;;5031770;28;20325;-47
2022/04/04 03:10:39;;;;;;;11.70;9.50;;;;;;;;;;5031503;28;20214;-47
2022/04/04 03:13:05;;;;;;;12.98;10.23;;;;;;;;;;5031614;28;20210;-46
2022/04/04 03:15:34;;;;;;;13.80;10.30;;;;;;;;;;5031834;28;20175;-46
2022/04/04 03:18:00;;;;;;;17.88;10.15;;;;;;;;;;5031802;28;20160;-46
2022/04/04 03:20:26;;;;;;;15.10;10.45;;;;;;;;;;5031479;28;20541;-46
2022/04/04 03:22:53;;;;;;;17.42;9.90;;;;;;;;;;5031563;28;20184;-46
2022/04/04 03:25:20;;;;;;;13.68;10.88;;;;;;;;;;5031553;28;20175;-48
2022/04/04 03:27:46;;;;;;;15.50;10.55;;;;;;;;;;5031506;28;20199;-46
2022/04/04 03:30:15;;;;;;;20.08;11.05;;;;;;;;;;5031436;28;20160;-46
2022/04/04 03:32:41;;;;;;;14.13;10.63;;;;;;;;;;5031486;28;20184;-46
2022/04/04 03:35:07;;;;;;;12.70;10.13;;;;;;;;;;5031515;28;20180;-46
2022/04/04 03:37:34;;;;;;;16.75;10.48;;;;;;;;;;5031495;28;20410;-46
2022/04/04 03:40:00;;;;;;;14.20;11.30;;;;;;;;;;5031260;28;20222;-46
2022/04/04 03:42:26;;;;;;;13.87;10.30;;;;;;;;;;5031430;28;20772;-46
2022/04/04 03:44:53;;;;;;;17.45;11.13;;;;;;;;;;5031567;28;20430;-46
2022/04/04 03:47:19;;;;;;;17.73;11.48;;;;;;;;;;5031424;28;20236;-50
2022/04/04 03:49:45;;;;;;;12.85;10.80;;;;;;;;;;5031097;28;20184;-46
2022/04/04 03:52:11;;;;;;;16.67;10.60;;;;;;;;;;5031263;28;20168;-47
2022/04/04 03:54:37;;;;;;;19.50;9.82;;;;;;;;;;5031411;28;20402;-46
2022/04/04 03:57:04;;;;;;;14.30;10.00;;;;;;;;;;5033802;28;20175;-46
2022/04/04 03:59:29;;;;;;;14.13;9.68;;;;;;;;;;5034899;28;20854;-47
2022/04/04 04:01:55;;;;;;;10.83;8.83;;;;;;;;;;5035080;28;20196;-50
2022/04/04 04:04:21;;;;;;;12.40;9.30;;;;;;;;;;5034995;28;20826;-46
2022/04/04 04:06:47;;;;;;;12.33;8.10;;;;;;;;;;5034901;28;20507;-46
2022/04/04 04:09:13;;;;;;;13.43;10.27;;;;;;;;;;5034799;28;20403;-46
2022/04/04 04:11:39;;;;;;;13.68;10.23;;;;;;;;;;5035015;28;20445;-46
2022/04/04 04:14:05;;;;;;;14.30;9.23;;;;;;;;;;5035390;28;20275;-46
2022/04/04 04:16:32;;;;;;;14.95;8.25;;;;;;;;;;5034934;28;20456;-46
2022/04/04 04:18:58;;;;;;;11.68;9.98;;;;;;;;;;5034761;28;20230;-46
2022/04/04 04:21:24;;;;;;;11.50;8.90;;;;;;;;;;5034545;28;20172;-46
2022/04/04 04:23:50;;;;;;;11.70;9.23;;;;;;;;;;5034609;28;20426;-46
2022/04/04 04:26:16;;;;;;;12.18;9.05;;;;;;;;;;5034829;28;20200;-46
2022/04/04 04:28:46;;;;;;;11.77;9.25;;;;;;;;;;5034645;28;20187;-46
2022/04/04 04:31:13;;;;;;;18.05;9.63;;;;;;;;;;5034422;28;20167;-46
2022/04/04 04:33:39;;;;;;;11.30;8.80;;;;;;;;;;5034504;28;20423;-45
2022/04/04 04:36:05;;;;;;;14.30;10.07;;;;;;;;;;5034930;28;20172;-46
2022/04/04 04:38:31;;;;;;;16.57;9.87;;;;;;;;;;5034437;28;20402;-46
2022/04/04 04:40:58;;;;;;;15.25;10.38;;;;;;;;;;5034150;28;20408;-46
2022/04/04 04:43:24;;;;;;;13.60;10.95;;;;;;;;;;5034203;28;20194;-46
2022/04/04 04:45:50;;;;;;;9.90;8.90;;;;;;;;;;5034427;28;20172;-46
2022/04/04 04:48:16;;;;;;;14.02;9.98;;;;;;;;;;5034223;28;20462;-46
2022/04/04 04:50:42;;;;;;;13.80;10.30;;;;;;;;;;5033836;28;20237;-46
2022/04/04 04:53:07;;;;;;;14.55;10.00;;;;;;;;;;5034000;28;20508;-46
2022/04/04 04:55:33;;;;;;;14.83;9.90;;;;;;;;;;5034142;28;20251;-46
2022/04/04 04:57:59;;;;;;;11.37;9.33;;;;;;;;;;5034077;28;20406;-46
2022/04/04 05:00:28;;;;;;;13.70;10.17;;;;;;;;;;5033879;28;20414;-49
2022/04/04 05:05:40;;;;;;;14.35;10.88;;;;;;;;;;5034214;28;20190;-46
2022/04/04 05:08:06;;;;;;;13.70;11.23;;;;;;;;;;5033096;28;20211;-46
2022/04/04 05:10:32;;;;;;;16.38;11.02;;;;;;;;;;5033649;28;20168;-47
2022/04/04 05:12:58;;;;;;;15.63;10.80;;;;;;;;;;5033706;28;20198;-50
2022/04/04 05:15:24;;;;;;;16.73;11.20;;;;;;;;;;5033791;28;20403;-46
2022/04/04 05:17:53;;;;;;;14.20;10.93;;;;;;;;;;5033613;28;20410;-46
2022/04/04 05:20:20;;;;;;;15.55;10.20;;;;;;;;;;5033719;28;20403;-46
2022/04/04 05:22:46;;;;;;;13.90;10.40;;;;;;;;;;5033514;28;20192;-46
2022/04/04 05:25:12;;;;;;;15.18;11.10;;;;;;;;;;5033538;28;20632;-45
2022/04/04 05:27:39;;;;;;;17.65;12.15;;;;;;;;;;5033471;28;20248;-46
2022/04/04 05:30:05;;;;;;;15.65;10.35;;;;;;;;;;5033150;28;20171;-46
2022/04/04 05:32:31;;;;;;;17.15;12.02;;;;;;;;;;5033250;28;20222;-49
2022/04/04 05:34:57;;;;;;;14.73;10.70;;;;;;;;;;5033430;28;20577;-46
2022/04/04 05:37:25;;;;;;;16.92;12.30;;;;;;;;;;5033426;28;20760;-46
2022/04/04 05:39:51;;;;;;;15.70;11.48;;;;;;;;;;5033140;28;20164;-46
2022/04/04 05:42:16;;;;;;;15.70;11.23;;;;;;;;;;5033106;28;20170;-46
2022/04/04 05:44:43;;;;;;;15.53;10.50;;;;;;;;;;5033124;28;20252;-46
2022/04/04 05:47:13;;;;;;;15.15;10.63;;;;;;;;;;5033034;28;20458;-46
2022/04/04 05:49:40;;;;;;;15.90;10.85;;;;;;;;;;5032787;28;20286;-46
2022/04/04 05:52:06;;;;;;;13.88;9.85;;;;;;;;;;5033041;28;20171;-45
2022/04/04 05:54:32;;;;;;;14.75;11.40;;;;;;;;;;5033070;28;20171;-46
2022/04/04 05:56:58;;;;;;;12.70;9.57;;;;;;;;;;5031730;28;20183;-46
2022/04/04 05:59:25;;;;;;;12.15;8.90;;;;;;;;;;5032654;28;20694;-45
2022/04/04 06:01:51;;;;;;;16.92;9.48;;;;;;;;;;5032713;28;20182;-45
2022/04/04 06:04:17;;;;;;;15.70;11.00;;;;;;;;;;5032756;28;20184;-46
2022/04/04 06:06:43;;;;;;;19.00;10.40;;;;;;;;;;5032794;28;20457;-46
2022/04/04 06:09:10;;;;;;;13.57;8.73;;;;;;;;;;5032660;28;20172;-46
2022/04/04 06:11:36;;;;;;;16.35;9.48;;;;;;;;;;5032446;28;20505;-49
2022/04/04 06:14:02;;;;;;;17.90;9.10;;;;;;;;;;5032412;28;20747;-46
2022/04/04 06:16:28;;;;;;;20.35;9.30;;;;;;;;;;5032567;28;20402;-45
2022/04/04 06:18:54;;;;;;;14.05;9.32;;;;;;;;;;5032275;28;20560;-46
2022/04/04 06:21:20;;;;;;;17.17;9.10;;;;;;;;;;5031714;28;20187;-46
2022/04/04 06:23:46;;;;;;;12.77;9.10;;;;;;;;;;5032386;28;20418;-46
2022/04/04 06:26:13;;;;;;;15.25;9.70;;;;;;;;;;5032273;28;20443;-46
2022/04/04 06:28:39;;;;;;;11.93;8.77;;;;;;;;;;5032296;28;20186;-50
2022/04/04 06:31:05;;;;;;;16.20;10.13;;;;;;;;;;5032068;28;20202;-46
2022/04/04 06:33:31;;;;;;;12.00;9.10;;;;;;;;;;5032040;28;20530;-46
2022/04/04 06:35:57;;;;;;;10.52;8.20;;;;;;;;;;5032119;28;20787;-46
2022/04/04 06:38:23;;;;;;;11.63;8.90;;;;;;;;;;5031656;28;20168;-46
2022/04/04 06:40:49;;;;;;;13.67;8.27;;;;;;;;;;5031992;28;20898;-46
2022/04/04 06:43:17;;;;;;;12.63;8.10;;;;;;;;;;5031960;28;20418;-46
2022/04/04 06:45:43;;;;;;;15.65;8.75;;;;;;;;;;5032088;28;20164;-46
2022/04/04 06:48:09;;;;;;;10.00;7.93;;;;;;;;;;5031774;28;20246;-46
2022/04/04 06:50:35;;;;;;;12.97;8.33;;;;;;;;;;5031711;28;20192;-46
2022/04/04 06:53:02;;;;;;;11.38;9.07;;;;;;;;;;5031694;28;20433;-46
2022/04/04 06:55:28;;;;;;;9.15;7.40;;;;;;;;;;5032023;28;20174;-46
2022/04/04 06:57:55;;;;;;;14.40;7.65;;;;;;;;;;5031963;28;20168;-46
2022/04/04 07:00:22;;;;;;;11.95;8.45;;;;;;;;;;5031701;28;20168;-46
2022/04/04 07:02:48;;;;;;;11.75;7.60;;;;;;;;;;5031785;28;20180;-46
2022/04/04 07:05:15;;;;;;;8.90;7.43;;;;;;;;;;5032357;28;20178;-46
2022/04/04 07:07:41;;;;;;;10.02;7.55;;;;;;;;;;5031711;28;20445;-50
2022/04/04 07:10:07;;;;;;;9.77;7.90;;;;;;;;;;5028826;28;20446;-46
2022/04/04 07:12:34;;;;;;;9.55;7.80;;;;;;;;;;5027315;28;20422;-46
2022/04/04 07:15:00;;;;;;;9.00;8.05;;;;;;;;;;5031527;28;20259;-50
2022/04/04 07:17:26;;;;;;;13.40;8.97;;;;;;;;;;5031758;28;20750;-46
2022/04/04 07:19:53;;;;;;;13.75;8.70;;;;;;;;;;5031607;28;20476;-46
2022/04/04 07:22:19;;;;;;;11.13;8.52;;;;;;;;;;5031438;28;20164;-49
2022/04/04 07:24:45;;;;;;;9.77;7.25;;;;;;;;;;5031392;28;20187;-49
2022/04/04 07:27:11;;;;;;;16.60;7.87;;;;;;;;;;5031327;28;20210;-46
2022/04/04 07:29:37;;;;;;;12.88;7.82;;;;;;;;;;5031324;28;20402;-47
2022/04/04 07:32:04;;;;;;;10.77;8.57;;;;;;;;;;5032096;28;20214;-48
2022/04/04 07:34:30;;;;;;;11.07;6.60;;;;;;;;;;5035508;28;20417;-46
2022/04/04 07:36:56;;;;;;;15.97;9.00;;;;;;;;;;5035512;28;20182;-46
2022/04/04 07:39:22;;;;;;;13.30;6.97;;;;;;;;;;5035160;28;20411;-46
2022/04/04 07:41:48;;;;;;;9.23;6.68;;;;;;;;;;5035722;28;20406;-46
2022/04/04 07:44:14;;;;;;;8.63;7.73;;;;;;;;;;5035358;28;20244;-47
2022/04/04 07:46:40;;;;;;;8.30;6.77;;;;;;;;;;5035207;28;20453;-47
2022/04/04 07:49:06;;;;;;;10.13;8.70;;;;;;;;;;5035165;28;20421;-49
2022/04/04 07:51:32;;;;;;;11.20;7.60;;;;;;;;;;5034052;28;20436;-45
2022/04/04 07:53:58;;;;;;;10.40;7.20;;;;;;;;;;5035198;28;20457;-46
2022/04/04 07:56:24;;;;;;;11.83;8.57;;;;;;;;;;5035178;28;20402;-46
2022/04/04 07:58:50;;;;;;;9.30;8.13;;;;;;;;;;5034571;28;20448;-45
2022/04/04 08:01:16;;;;;;;7.55;6.65;;;;;;;;;;5037596;28;20864;-46
2022/04/04 08:03:42;;;;;;;8.70;6.82;;;;;;;;;;5039884;28;20215;-46
2022/04/04 08:06:08;;;;;;;8.87;7.27;;;;;;;;;;5052210;28;20217;-46
2022/04/04 08:08:34;;;;;;;7.97;6.50;;;;;;;;;;5052616;28;20411;-46
2022/04/04 08:11:02;;;;;;;10.20;8.00;;;;;;;;;;5034837;28;20402;-47
2022/04/04 08:13:28;;;;;;;10.32;8.80;;;;;;;;;;5034733;28;20471;-47
2022/04/04 08:15:56;;;;;;;9.27;8.20;;;;;;;;;;5034939;28;20184;-46
2022/04/04 08:18:22;;;;;;;12.63;7.55;;;;;;;;;;5047410;28;20543;-48
2022/04/04 08:20:48;;;;;;;12.63;7.60;;;;;;;;;;5054622;28;20205;-50
2022/04/04 08:23:14;;;;;;;11.47;7.10;;;;;;;;;;5054660;28;20440;-50
2022/04/04 08:25:40;;;;;;;11.30;7.60;;;;;;;;;;5054868;28;20417;-51
2022/04/04 08:28:07;;;;;;;8.93;8.00;;;;;;;;;;5054604;28;20449;-51
2022/04/04 08:30:33;;;;;;;14.47;7.97;;;;;;;;;;5054419;28;20920;-49
2022/04/04 08:32:59;;;;;;;8.73;7.00;;;;;;;;;;5054367;28;20495;-48
2022/04/04 08:35:25;;;;;;;8.40;6.60;;;;;;;;;;5041843;28;20926;-49
2022/04/04 08:37:51;;;;;;;10.00;7.20;;;;;;;;;;5034568;28;20407;-49
2022/04/04 08:40:18;;;;;;;8.43;6.53;;;;;;;;;;5034350;28;20419;-50
2022/04/04 08:42:45;;;;;;;7.87;7.17;;;;;;;;;;5033225;28;20903;-51
2022/04/04 08:45:11;;;;;;;8.15;7.28;;;;;;;;;;5034447;28;20420;-49
2022/04/04 08:47:38;;;;;;;7.67;6.90;;;;;;;;;;5034314;28;20195;-52
2022/04/04 08:50:05;;;;;;;10.60;8.47;;;;;;;;;;5034023;28;20507;-50
2022/04/04 08:52:31;;;;;;;10.03;6.60;;;;;;;;;;5034078;28;20472;-50
2022/04/04 08:54:57;;;;;;;8.17;6.93;;;;;;;;;;5034212;28;20406;-49
2022/04/04 08:57:23;;;;;;;9.03;6.47;;;;;;;;;;5034121;28;20411;-48
2022/04/04 08:59:49;;;;;;;7.13;6.27;;;;;;;;;;5034004;28;20440;-50
2022/04/04 09:02:15;;;;;;;7.20;6.50;;;;;;;;;;5033825;28;20538;-48
2022/04/04 09:04:42;;;;;;;7.93;7.13;;;;;;;;;;5032911;28;20403;-50
2022/04/04 09:07:09;;;;;;;7.90;7.20;;;;;;;;;;5033900;28;20454;-48
2022/04/04 09:09:38;;;;;;;8.80;6.90;;;;;;;;;;5046529;28;20417;-49
2022/04/04 09:12:08;;;;;;;6.77;6.10;;;;;;;;;;5035055;28;20407;-49
2022/04/04 09:14:43;;;;;;;14.43;6.40;;;;;;;;;;5033842;28;20403;-49
2022/04/04 09:17:10;;;;;;;9.65;6.70;;;;;;;;;;5033797;28;20398;-49
2022/04/04 09:19:36;;;;;;;7.70;5.57;;;;;;;;;;5032923;28;20565;-51
2022/04/04 09:22:06;;;;;;;6.67;5.97;;;;;;;;;;5033501;28;20421;-49
2022/04/04 09:24:49;;;;;;;10.93;6.70;;;;;;;;;;5032642;28;20468;-50
2022/04/04 09:27:21;;;;;;;8.23;6.17;;;;;;;;;;5013632;28;20453;-49
2022/04/04 09:29:48;;;;;;;6.97;6.30;;;;;;;;;;5013717;28;20489;-48
2022/04/04 09:32:17;;;;;;;7.67;6.10;;;;;;;;;;5013737;28;20400;-50
2022/04/04 09:34:52;;;;;;;10.35;6.93;;;;;;;;;;5022024;28;20407;-50
2022/04/04 09:37:19;;;;;;;8.60;7.80;;;;;;;;;;5033343;28;20177;-49
2022/04/04 09:39:45;;;;;;;8.80;6.23;;;;;;;;;;5032743;28;20413;-49
2022/04/04 09:42:15;;;;;;;9.60;7.03;;;;;;;;;;5032826;28;20447;-50
2022/04/04 09:44:41;;;;;;;8.77;7.20;;;;;;;;;;5032990;28;20415;-51
2022/04/04 09:47:08;;;;;;;7.73;6.80;;;;;;;;;;5033254;28;20509;-50
2022/04/04 09:49:39;;;;;;;7.40;6.63;;;;;;;;;;5032617;28;20488;-50
2022/04/04 09:52:05;;;;;;;10.15;7.20;;;;;;;;;;5033060;28;20417;-50
2022/04/04 09:54:31;;;;;;;8.93;7.67;;;;;;;;;;5032258;28;20249;-47
2022/04/04 09:57:14;;;;;;;8.50;7.37;;;;;;;;;;5033014;28;20918;-46
2022/04/04 09:59:41;;;;;;;8.40;6.73;;;;;;;;;;5032447;28;20795;-46
2022/04/04 10:02:09;;;;;;;14.15;7.35;;;;;;;;;;5032626;28;20441;-46
2022/04/04 10:04:35;;;;;;;9.07;7.65;;;;;;;;;;5032590;28;20281;-47
2022/04/04 10:07:04;;;;;;;8.90;7.97;;;;;;;;;;5032654;28;20199;-51
2022/04/04 10:09:30;;;;;;;9.83;8.07;;;;;;;;;;5032584;28;20179;-49
2022/04/04 10:11:57;;;;;;;12.02;7.40;;;;;;;;;;5032747;28;20433;-49
2022/04/04 10:14:24;;;;;;;7.78;7.00;;;;;;;;;;5032430;28;20191;-49
2022/04/04 10:16:52;;;;;;;9.85;7.03;;;;;;;;;;5032715;28;20226;-49
2022/04/04 10:19:18;;;;;;;11.55;7.82;;;;;;;;;;5032022;28;20271;-49
2022/04/04 10:21:44;;;;;;;11.68;8.20;;;;;;;;;;5032692;28;20234;-49
2022/04/04 10:24:11;;;;;;;10.75;7.55;;;;;;;;;;5032232;28;20191;-48
2022/04/04 10:26:38;;;;;;;12.60;8.90;;;;;;;;;;5032312;28;20187;-51
2022/04/04 10:29:14;;;;;;;11.70;8.80;;;;;;;;;;5032074;28;20648;-49
2022/04/04 10:31:53;;;;;;;9.70;8.10;;;;;;;;;;5032120;28;20163;-48
2022/04/04 10:34:23;;;;;;;13.82;8.40;;;;;;;;;;5032232;28;20234;-49
2022/04/04 10:36:57;;;;;;;15.05;8.88;;;;;;;;;;5032359;28;20171;-51
2022/04/04 10:39:44;;;;;;;8.68;7.20;;;;;;;;;;5031913;28;20167;-49
2022/04/04 10:42:25;;;;;;;13.43;8.63;;;;;;;;;;5031990;28;20167;-50
2022/04/04 10:44:57;;;;;;;10.98;8.07;;;;;;;;;;5031907;28;20237;-50
2022/04/04 10:47:24;;;;;;;14.48;8.35;;;;;;;;;;5032286;28;20203;-50
2022/04/04 10:49:50;;;;;;;15.88;9.35;;;;;;;;;;5031470;28;20204;-50
2022/04/04 10:52:23;;;;;;;11.95;9.43;;;;;;;;;;5031916;28;20644;-48
2022/04/04 10:54:49;;;;;;;13.27;9.45;;;;;;;;;;5031770;28;20191;-50
2022/04/04 10:57:19;;;;;;;14.75;9.95;;;;;;;;;;5032005;28;20514;-50
2022/04/04 10:59:46;;;;;;;16.45;10.52;;;;;;;;;;5031708;28;20586;-49
2022/04/04 11:02:14;;;;;;;11.18;10.02;;;;;;;;;;5031880;28;20543;-50
2022/04/04 11:07:39;;;;;;;17.30;11.45;;;;;;;;;;5030093;28;20570;-48
2022/04/04 11:10:06;;;;;;;14.30;9.55;;;;;;;;;;5035084;28;20649;-48
2022/04/04 11:12:52;;;;;;;19.35;10.82;;;;;;;;;;5031593;28;20679;-47
2022/04/04 11:15:19;;;;;;;16.58;11.60;;;;;;;;;;5030889;28;20286;-47
2022/04/04 11:18:01;;;;;;;14.20;12.70;;;;;;;;;;5031749;28;20159;-47
2022/04/04 11:20:33;;;;;;;19.25;12.63;;;;;;;;;;5031390;28;20170;-46
2022/04/04 11:23:01;;;;;;;14.40;10.85;;;;;;;;;;5031699;28;20213;-47
2022/04/04 11:25:33;;;;;;;16.10;12.30;;;;;;;;;;5024917;28;20179;-47
2022/04/04 11:28:00;;;;;;;12.55;9.65;;;;;;;;;;5031467;28;20202;-46
2022/04/04 11:30:27;;;;;;;20.85;11.77;;;;;;;;;;5031125;28;20528;-46
2022/04/04 11:32:54;;;;;;;19.83;15.25;;;;;;;;;;5031468;28;20210;-46
2022/04/04 11:35:23;;;;;;;15.50;13.00;;;;;;;;;;5031330;28;20171;-45
2022/04/04 11:37:50;;;;;;;25.13;15.68;;;;;;;;;;5031469;28;20186;-45
2022/04/04 11:40:18;;;;;;;27.63;13.93;;;;;;;;;;5031036;28;20186;-45
2022/04/04 11:42:51;;;;;;;18.92;15.10;;;;;;;;;;5031416;28;20687;-46
2022/04/04 11:45:21;;;;;;;25.50;17.85;;;;;;;;;;5031380;28;20179;-46
2022/04/04 11:47:50;;;;;;;22.60;16.20;;;;;;;;;;5031436;28;20201;-46
2022/04/04 11:50:17;;;;;;;28.75;15.57;;;;;;;;;;5031597;28;20179;-48
2022/04/04 11:52:46;;;;;;;23.70;17.95;;;;;;;;;;5030673;28;20699;-45
2022/04/04 11:55:16;;;;;;;25.95;16.98;;;;;;;;;;5027435;28;20598;-50
2022/04/04 11:57:46;;;;;;;22.80;17.55;;;;;;;;;;5030805;28;20195;-45
2022/04/04 12:00:15;;;;;;;24.45;16.92;;;;;;;;;;5043559;28;20332;-45
2022/04/04 12:02:43;;;;;;;23.90;14.68;;;;;;;;;;5023768;28;20524;-46
2022/04/04 12:05:12;;;;;;;26.85;16.05;;;;;;;;;;5051321;28;20159;-46
2022/04/04 12:07:38;;;;;;;21.15;15.90;;;;;;;;;;5036363;28;20249;-47
2022/04/04 12:10:04;;;;;;;24.05;16.92;;;;;;;;;;5030683;28;20590;-47
2022/04/04 12:12:33;;;;;;;23.30;18.13;;;;;;;;;;5044873;28;20220;-47
2022/04/04 12:14:59;;;;;;;29.13;19.00;;;;;;;;;;5049423;28;20160;-49
2022/04/04 12:17:25;;;;;;;19.27;15.60;;;;;;;;;;5033059;28;20188;-48
2022/04/04 12:19:52;;;;;;;19.67;14.95;;;;;;;;;;5034532;28;20649;-48
2022/04/04 12:25:04;;;;;;;19.98;16.58;;;;;;;;;;5034517;28;20187;-48
2022/04/04 12:27:30;;;;;;;21.60;15.80;;;;;;;;;;5034463;28;20207;-50
2022/04/04 12:30:04;;;;;;;23.27;16.67;;;;;;;;;;5050846;28;20171;-47
2022/04/04 12:32:34;;;;;;;23.25;16.25;;;;;;;;;;5028457;28;20435;-46
2022/04/04 12:35:01;;;;;;;22.60;16.45;;;;;;;;;;5035867;28;20192;-50
2022/04/04 12:37:37;;;;;;;19.75;17.20;;;;;;;;;;5045046;28;20586;-47
2022/04/04 12:40:23;;;;;;;21.38;16.95;;;;;;;;;;5054151;28;20167;-49
2022/04/04 12:42:51;;;;;;;21.83;16.92;;;;;;;;;;5038003;28;20187;-48
2022/04/04 12:45:18;;;;;;;25.38;18.17;;;;;;;;;;5038858;28;20191;-48
2022/04/04 12:47:54;;;;;;;24.20;18.00;;;;;;;;;;5034064;28;20203;-49
2022/04/04 12:50:21;;;;;;;16.52;13.65;;;;;;;;;;5037313;28;20206;-48
2022/04/04 12:53:00;;;;;;;19.25;16.27;;;;;;;;;;5049583;28;20188;-48
2022/04/04 12:55:27;;;;;;;23.00;19.35;;;;;;;;;;5034051;28;20316;-48
2022/04/04 12:57:53;;;;;;;23.27;19.92;;;;;;;;;;5033651;28;20632;-48
2022/04/04 13:00:27;;;;;;;23.02;18.25;;;;;;;;;;5033713;28;20168;-48
2022/04/04 13:02:53;;;;;;;26.63;20.13;;;;;;;;;;5032868;28;20199;-48
2022/04/04 13:05:19;;;;;;;28.40;20.17;;;;;;;;;;5033120;28;20702;-47
2022/04/04 13:07:55;;;;;;;23.30;19.77;;;;;;;;;;5039891;28;20484;-47
2022/04/04 13:10:24;;;;;;;23.65;18.17;;;;;;;;;;5053608;28;20401;-48
2022/04/04 13:12:50;;;;;;;21.55;15.63;;;;;;;;;;5050990;28;20199;-48
2022/04/04 13:15:35;;;;;;;19.25;15.55;;;;;;;;;;5033422;28;20211;-48
2022/04/04 13:18:01;;;;;;;23.08;16.50;;;;;;;;;;5032360;28;20561;-46
2022/04/04 13:20:27;;;;;;;19.60;15.77;;;;;;;;;;5033582;28;20167;-47
2022/04/04 13:22:53;;;;;;;21.37;16.83;;;;;;;;;;5033114;28;20446;-47
2022/04/04 13:25:19;;;;;;;20.10;15.53;;;;;;;;;;5033636;28;20417;-47
2022/04/04 13:27:45;;;;;;;22.57;18.30;;;;;;;;;;5033228;28;20498;-47
2022/04/04 13:30:12;;;;;;;20.47;16.50;;;;;;;;;;5032537;28;20837;-47
2022/04/04 13:32:40;;;;;;;20.08;16.67;;;;;;;;;;5032882;28;20521;-46
2022/04/04 13:35:06;;;;;;;18.90;16.90;;;;;;;;;;5033426;28;20170;-47
2022/04/04 13:37:32;;;;;;;21.27;18.90;;;;;;;;;;5033490;28;20180;-47
2022/04/04 13:39:59;;;;;;;26.53;18.80;;;;;;;;;;5033250;28;20171;-47
2022/04/04 13:42:25;;;;;;;21.15;18.60;;;;;;;;;;5043636;28;20421;-46
2022/04/04 13:44:51;;;;;;;28.30;20.33;;;;;;;;;;5043462;28;20590;-49
2022/04/04 13:47:17;;;;;;;28.33;17.98;;;;;;;;;;5033109;28;20533;-48
2022/04/04 13:49:43;;;;;;;24.70;19.50;;;;;;;;;;5032640;28;20237;-47
2022/04/04 13:52:13;;;;;;;28.57;19.57;;;;;;;;;;5030579;28;20179;-47
2022/04/04 13:54:39;;;;;;;23.13;18.13;;;;;;;;;;5032805;28;20932;-49
2022/04/04 13:57:05;;;;;;;25.42;21.38;;;;;;;;;;5033127;28;20248;-48
2022/04/04 13:59:31;;;;;;;30.17;21.47;;;;;;;;;;5032701;28;20206;-47
2022/04/04 14:01:57;;;;;;;22.27;18.97;;;;;;;;;;5032929;28;20403;-48
2022/04/04 14:04:23;;;;;;;27.08;21.95;;;;;;;;;;5032532;28;20469;-47
2022/04/04 14:06:49;;;;;;;25.98;21.20;;;;;;;;;;5032071;28;20202;-47
2022/04/04 14:09:15;;;;;;;27.73;19.70;;;;;;;;;;5032576;28;20172;-46
2022/04/04 14:11:42;;;;;;;26.97;17.77;;;;;;;;;;5032501;28;20172;-46
2022/04/04 14:14:10;;;;;;;34.08;21.95;;;;;;;;;;5032576;28;20426;-46
2022/04/04 14:16:37;;;;;;;32.90;21.75;;;;;;;;;;5032593;28;20250;-49
2022/04/04 14:19:03;;;;;;;30.17;21.40;;;;;;;;;;5032561;28;20187;-47
2022/04/04 14:21:29;;;;;;;26.67;19.40;;;;;;;;;;5032053;28;20203;-49
2022/04/04 14:23:55;;;;;;;32.13;20.27;;;;;;;;;;5032241;28;20422;-47
2022/04/04 14:26:21;;;;;;;25.47;17.33;;;;;;;;;;5032414;28;20887;-47
2022/04/04 14:28:47;;;;;;;24.50;18.77;;;;;;;;;;5032413;28;20906;-44
2022/04/04 14:31:13;;;;;;;27.27;21.70;;;;;;;;;;5032191;28;20428;-45
2022/04/04 14:33:39;;;;;;;26.97;20.63;;;;;;;;;;5032099;28;20454;-45
2022/04/04 14:36:06;;;;;;;25.10;20.00;;;;;;;;;;5032217;28;20425;-47